sensor_id;sensor_type;location;lat;lon;timestamp;pressure;altitude;pressure_sealevel;temperature;humidity
62617;BME280;62539;51.190;6.808;2022-09-01T00:01:16;101697.94;;;26.49;43.02
62617;BME280;62539;51.190;6.808;2022-09-01T00:03:46;101700.53;;;26.50;42.78
62617;BME280;62539;51.190;6.808;2022-09-01T00:06:15;101704.97;;;26.50;42.91
62617;BME280;62539;51.190;6.808;2022-09-01T00:08:46;101697.00;;;26.50;42.61
62617;BME280;62539;51.190;6.808;2022-09-01T00:11:15;101691.66;;;26.50;42.74
62617;BME280;62539;51.190;6.808;2022-09-01T00:13:41;101698.81;;;26.49;42.73
62617;BME280;62539;51.190;6.808;2022-09-01T00:16:07;101704.13;;;26.49;42.85
62617;BME280;62539;51.190;6.808;2022-09-01T00:18:38;101692.59;;;26.49;43.07
62617;BME280;62539;51.190;6.808;2022-09-01T00:21:12;101700.59;;;26.49;42.83
62617;BME280;62539;51.190;6.808;2022-09-01T00:23:38;101697.09;;;26.48;42.75
62617;BME280;62539;51.190;6.808;2022-09-01T00:26:04;101704.13;;;26.49;42.75
62617;BME280;62539;51.190;6.808;2022-09-01T00:28:34;101697.09;;;26.48;42.83
62617;BME280;62539;51.190;6.808;2022-09-01T00:31:01;101705.91;;;26.49;42.54
62617;BME280;62539;51.190;6.808;2022-09-01T00:33:27;101711.34;;;26.47;42.72
62617;BME280;62539;51.190;6.808;2022-09-01T00:35:52;101712.19;;;26.48;42.76
62617;BME280;62539;51.190;6.808;2022-09-01T00:38:18;101712.19;;;26.48;42.68
62617;BME280;62539;51.190;6.808;2022-09-01T00:40:44;101700.69;;;26.47;42.59
62617;BME280;62539;51.190;6.808;2022-09-01T00:43:40;101705.28;;;26.44;42.92
62617;BME280;62539;51.190;6.808;2022-09-01T00:46:15;101700.75;;;26.46;42.62
62617;BME280;62539;51.190;6.808;2022-09-01T00:49:07;101699.97;;;26.44;42.76
62617;BME280;62539;51.190;6.808;2022-09-01T00:51:37;101707.91;;;26.45;42.81
62617;BME280;62539;51.190;6.808;2022-09-01T00:54:07;101699.97;;;26.44;42.84
62617;BME280;62539;51.190;6.808;2022-09-01T00:56:38;101700.84;;;26.44;42.58
62617;BME280;62539;51.190;6.808;2022-09-01T00:59:06;101699.97;;;26.44;42.68
62617;BME280;62539;51.190;6.808;2022-09-01T01:01:36;101693.81;;;26.43;42.54
62617;BME280;62539;51.190;6.808;2022-09-01T01:04:04;101694.66;;;26.44;42.68
62617;BME280;62539;51.190;6.808;2022-09-01T01:06:31;101692.09;;;26.42;42.50
62617;BME280;62539;51.190;6.808;2022-09-01T01:08:58;101695.69;;;26.41;42.67
62617;BME280;62539;51.190;6.808;2022-09-01T01:11:28;101694.75;;;26.42;42.87
62617;BME280;62539;51.190;6.808;2022-09-01T01:14:05;101691.38;;;26.38;42.77
62617;BME280;62539;51.190;6.808;2022-09-01T01:16:41;101694.81;;;26.40;42.77
62617;BME280;62539;51.190;6.808;2022-09-01T01:19:23;101694.03;;;26.38;42.71
62617;BME280;62539;51.190;6.808;2022-09-01T01:22:27;101690.94;;;26.30;43.04
62617;BME280;62539;51.190;6.808;2022-09-01T01:25:24;101693.38;;;26.35;43.00
62617;BME280;62539;51.190;6.808;2022-09-01T01:27:49;101695.16;;;26.34;42.88
62617;BME280;62539;51.190;6.808;2022-09-01T01:30:16;101694.31;;;26.34;43.15
62617;BME280;62539;51.190;6.808;2022-09-01T01:32:43;101688.13;;;26.33;42.95
62617;BME280;62539;51.190;6.808;2022-09-01T01:35:13;101689.00;;;26.34;42.73
62617;BME280;62539;51.190;6.808;2022-09-01T01:37:42;101703.13;;;26.34;42.77
62617;BME280;62539;51.190;6.808;2022-09-01T01:40:12;101696.09;;;26.33;42.75
62617;BME280;62539;51.190;6.808;2022-09-01T01:42:46;101704.06;;;26.33;42.67
62617;BME280;62539;51.190;6.808;2022-09-01T01:45:16;101707.59;;;26.34;42.94
62617;BME280;62539;51.190;6.808;2022-09-01T01:47:48;101701.41;;;26.33;43.18
62617;BME280;62539;51.190;6.808;2022-09-01T01:50:18;101709.38;;;26.33;43.11
62617;BME280;62539;51.190;6.808;2022-09-01T01:52:45;101709.38;;;26.33;42.77
62617;BME280;62539;51.190;6.808;2022-09-01T01:55:11;101712.06;;;26.33;43.21
62617;BME280;62539;51.190;6.808;2022-09-01T01:57:39;101715.59;;;26.34;42.66
62617;BME280;62539;51.190;6.808;2022-09-01T02:00:13;101704.06;;;26.33;42.73
62617;BME280;62539;51.190;6.808;2022-09-01T02:02:44;101718.31;;;26.32;43.15
62617;BME280;62539;51.190;6.808;2022-09-01T02:05:50;101718.31;;;26.32;43.01
62617;BME280;62539;51.190;6.808;2022-09-01T02:08:10;101711.22;;;26.33;42.97
62617;BME280;62539;51.190;6.808;2022-09-01T02:10:42;101714.88;;;26.30;42.95
62617;BME280;62539;51.190;6.808;2022-09-01T02:13:12;101712.22;;;26.30;42.89
62617;BME280;62539;51.190;6.808;2022-09-01T02:15:48;101712.22;;;26.30;43.00
62617;BME280;62539;51.190;6.808;2022-09-01T02:18:26;101707.84;;;26.29;43.19
62617;BME280;62539;51.190;6.808;2022-09-01T02:20:55;101707.84;;;26.29;43.04
62617;BME280;62539;51.190;6.808;2022-09-01T02:23:23;101713.16;;;26.29;42.78
62617;BME280;62539;51.190;6.808;2022-09-01T02:25:52;101714.97;;;26.29;42.97
62617;BME280;62539;51.190;6.808;2022-09-01T02:28:21;101709.72;;;26.27;43.07
62617;BME280;62539;51.190;6.808;2022-09-01T02:30:50;101714.09;;;26.28;43.00
62617;BME280;62539;51.190;6.808;2022-09-01T02:33:20;101714.19;;;26.26;42.95
62617;BME280;62539;51.190;6.808;2022-09-01T02:35:51;101708.88;;;26.26;42.81
62617;BME280;62539;51.190;6.808;2022-09-01T02:38:19;101702.69;;;26.26;42.93
62617;BME280;62539;51.190;6.808;2022-09-01T02:40:48;101706.28;;;26.25;43.20
62617;BME280;62539;51.190;6.808;2022-09-01T02:43:14;101702.78;;;26.24;42.82
62617;BME280;62539;51.190;6.808;2022-09-01T02:45:48;101699.25;;;26.24;43.04
62617;BME280;62539;51.190;6.808;2022-09-01T02:48:25;101699.25;;;26.24;42.88
62617;BME280;62539;51.190;6.808;2022-09-01T02:51:01;101704.56;;;26.24;43.19
62617;BME280;62539;51.190;6.808;2022-09-01T02:53:29;101701.13;;;26.22;43.25
62617;BME280;62539;51.190;6.808;2022-09-01T02:55:56;101703.88;;;26.20;42.92
62617;BME280;62539;51.190;6.808;2022-09-01T02:58:23;101703.00;;;26.20;43.30
62617;BME280;62539;51.190;6.808;2022-09-01T03:00:55;101694.25;;;26.18;42.89
62617;BME280;62539;51.190;6.808;2022-09-01T03:03:22;101702.16;;;26.19;42.86
62617;BME280;62539;51.190;6.808;2022-09-01T03:05:52;101700.44;;;26.18;43.10
62617;BME280;62539;51.190;6.808;2022-09-01T03:08:22;101698.72;;;26.17;43.37
62617;BME280;62539;51.190;6.808;2022-09-01T03:10:49;101702.22;;;26.18;43.38
62617;BME280;62539;51.190;6.808;2022-09-01T03:13:21;101697.84;;;26.17;43.26
62617;BME280;62539;51.190;6.808;2022-09-01T03:15:48;101702.22;;;26.18;43.24
62617;BME280;62539;51.190;6.808;2022-09-01T03:18:15;101697.84;;;26.17;43.14
62617;BME280;62539;51.190;6.808;2022-09-01T03:20:44;101704.03;;;26.17;43.32
62617;BME280;62539;51.190;6.808;2022-09-01T03:23:16;101702.31;;;26.16;43.10
62617;BME280;62539;51.190;6.808;2022-09-01T03:25:44;101707.63;;;26.16;42.99
62617;BME280;62539;51.190;6.808;2022-09-01T03:28:12;101712.06;;;26.16;43.41
62617;BME280;62539;51.190;6.808;2022-09-01T03:30:44;101706.75;;;26.16;43.37
62617;BME280;62539;51.190;6.808;2022-09-01T03:33:13;101708.56;;;26.15;42.99
62617;BME280;62539;51.190;6.808;2022-09-01T03:35:42;101704.19;;;26.14;43.41
62617;BME280;62539;51.190;6.808;2022-09-01T03:38:09;101703.28;;;26.13;43.25
62617;BME280;62539;51.190;6.808;2022-09-01T03:40:37;101703.28;;;26.13;43.21
62617;BME280;62539;51.190;6.808;2022-09-01T03:43:07;101703.28;;;26.13;43.40
62617;BME280;62539;51.190;6.808;2022-09-01T03:45:35;101699.84;;;26.11;43.03
62617;BME280;62539;51.190;6.808;2022-09-01T03:48:03;101701.56;;;26.12;43.34
62617;BME280;62539;51.190;6.808;2022-09-01T03:50:38;101698.13;;;26.10;43.04
62617;BME280;62539;51.190;6.808;2022-09-01T03:53:11;101705.16;;;26.11;43.46
62617;BME280;62539;51.190;6.808;2022-09-01T03:55:39;101698.13;;;26.10;43.08
62617;BME280;62539;51.190;6.808;2022-09-01T03:58:08;101697.19;;;26.11;43.24
62617;BME280;62539;51.190;6.808;2022-09-01T04:00:39;101690.16;;;26.10;43.16
62617;BME280;62539;51.190;6.808;2022-09-01T04:03:09;101691.09;;;26.09;43.37
62617;BME280;62539;51.190;6.808;2022-09-01T04:05:38;101689.38;;;26.08;43.35
62617;BME280;62539;51.190;6.808;2022-09-01T04:08:10;101684.06;;;26.08;43.17
62617;BME280;62539;51.190;6.808;2022-09-01T04:10:50;101691.25;;;26.06;43.46
62617;BME280;62539;51.190;6.808;2022-09-01T04:13:21;101686.81;;;26.07;43.26
62617;BME280;62539;51.190;6.808;2022-09-01T04:15:52;101690.31;;;26.07;43.18
62617;BME280;62539;51.190;6.808;2022-09-01T04:18:18;101689.53;;;26.05;43.11
62617;BME280;62539;51.190;6.808;2022-09-01T04:20:58;101684.22;;;26.05;43.24
62617;BME280;62539;51.190;6.808;2022-09-01T04:23:31;101692.28;;;26.04;43.32
62617;BME280;62539;51.190;6.808;2022-09-01T04:26:01;101687.81;;;26.04;43.39
62617;BME280;62539;51.190;6.808;2022-09-01T04:28:36;101686.09;;;26.03;43.43
62617;BME280;62539;51.190;6.808;2022-09-01T04:31:07;101687.03;;;26.02;43.62
62617;BME280;62539;51.190;6.808;2022-09-01T04:33:35;101691.06;;;25.93;43.48
62617;BME280;62539;51.190;6.808;2022-09-01T04:36:05;101694.31;;;25.98;43.51
62617;BME280;62539;51.190;6.808;2022-09-01T04:38:38;101693.44;;;25.98;43.63
62617;BME280;62539;51.190;6.808;2022-09-01T04:41:05;101687.19;;;25.99;43.51
62617;BME280;62539;51.190;6.808;2022-09-01T04:43:31;101689.84;;;25.99;43.81
62617;BME280;62539;51.190;6.808;2022-09-01T04:45:58;101694.22;;;26.00;43.42
62617;BME280;62539;51.190;6.808;2022-09-01T04:48:23;101689.84;;;25.99;43.26
62617;BME280;62539;51.190;6.808;2022-09-01T04:50:49;101695.94;;;26.01;43.25
62617;BME280;62539;51.190;6.808;2022-09-01T04:53:17;101687.97;;;26.01;43.23
62617;BME280;62539;51.190;6.808;2022-09-01T04:55:44;101694.22;;;26.00;43.26
62617;BME280;62539;51.190;6.808;2022-09-01T04:58:14;101694.16;;;26.02;43.33
62617;BME280;62539;51.190;6.808;2022-09-01T05:00:42;101684.47;;;26.01;43.00
62617;BME280;62539;51.190;6.808;2022-09-01T05:03:12;101695.94;;;26.01;43.02
62617;BME280;62539;51.190;6.808;2022-09-01T05:05:41;101698.63;;;26.01;43.06
62617;BME280;62539;51.190;6.808;2022-09-01T05:08:14;101697.78;;;26.01;43.30
62617;BME280;62539;51.190;6.808;2022-09-01T05:10:48;101695.94;;;26.01;43.13
62617;BME280;62539;51.190;6.808;2022-09-01T05:13:17;101696.91;;;26.00;43.36
62617;BME280;62539;51.190;6.808;2022-09-01T05:15:47;101695.09;;;26.01;43.28
62617;BME280;62539;51.190;6.808;2022-09-01T05:18:28;101702.22;;;26.00;42.71
62617;BME280;62539;51.190;6.808;2022-09-01T05:20:54;101699.66;;;25.98;43.27
62617;BME280;62539;51.190;6.808;2022-09-01T05:23:20;101698.72;;;26.00;42.42
62617;BME280;62539;51.190;6.808;2022-09-01T05:25:49;101702.38;;;25.97;43.14
62617;BME280;62539;51.190;6.808;2022-09-01T05:28:18;101700.66;;;25.96;43.53
62617;BME280;62539;51.190;6.808;2022-09-01T05:30:46;101701.53;;;25.96;43.75
62617;BME280;62539;51.190;6.808;2022-09-01T05:33:13;101695.34;;;25.96;44.17
62617;BME280;62539;51.190;6.808;2022-09-01T05:35:42;101705.97;;;25.96;44.09
62617;BME280;62539;51.190;6.808;2022-09-01T05:38:18;101701.59;;;25.95;44.27
62617;BME280;62539;51.190;6.808;2022-09-01T05:40:43;101703.31;;;25.96;43.98
62617;BME280;62539;51.190;6.808;2022-09-01T05:43:11;101705.13;;;25.95;44.38
62617;BME280;62539;51.190;6.808;2022-09-01T05:45:39;101711.28;;;25.96;43.92
62617;BME280;62539;51.190;6.808;2022-09-01T05:48:11;101707.78;;;25.95;43.77
62617;BME280;62539;51.190;6.808;2022-09-01T05:50:42;101708.72;;;25.94;44.29
62617;BME280;62539;51.190;6.808;2022-09-01T05:53:09;101716.59;;;25.96;44.15
62617;BME280;62539;51.190;6.808;2022-09-01T05:55:40;101716.69;;;25.94;44.15
62617;BME280;62539;51.190;6.808;2022-09-01T05:58:09;101717.53;;;25.95;44.08
62617;BME280;62539;51.190;6.808;2022-09-01T06:00:44;101709.66;;;25.93;44.19
62617;BME280;62539;51.190;6.808;2022-09-01T06:03:14;101718.47;;;25.94;44.16
62617;BME280;62539;51.190;6.808;2022-09-01T06:05:41;101714.88;;;25.95;43.50
62617;BME280;62539;51.190;6.808;2022-09-01T06:08:12;101714.88;;;25.95;43.49
62617;BME280;62539;51.190;6.808;2022-09-01T06:10:40;101714.88;;;25.95;42.94
62617;BME280;62539;51.190;6.808;2022-09-01T06:13:09;101720.19;;;25.95;43.08
62617;BME280;62539;51.190;6.808;2022-09-01T06:15:36;101716.69;;;25.94;43.53
62617;BME280;62539;51.190;6.808;2022-09-01T06:18:07;101714.03;;;25.94;43.22
62617;BME280;62539;51.190;6.808;2022-09-01T06:20:38;101723.78;;;25.94;43.00
62617;BME280;62539;51.190;6.808;2022-09-01T06:23:08;101716.75;;;25.93;42.45
62617;BME280;62539;51.190;6.808;2022-09-01T06:25:37;101718.47;;;25.94;42.24
62617;BME280;62539;51.190;6.808;2022-09-01T06:28:04;101717.53;;;25.95;41.50
62617;BME280;62539;51.190;6.808;2022-09-01T06:30:32;101718.47;;;25.94;41.47
62617;BME280;62539;51.190;6.808;2022-09-01T06:33:01;101715.91;;;25.92;40.99
62617;BME280;62539;51.190;6.808;2022-09-01T06:35:30;101719.41;;;25.93;40.29
62617;BME280;62539;51.190;6.808;2022-09-01T06:37:56;101709.72;;;25.92;40.44
62617;BME280;62539;51.190;6.808;2022-09-01T06:40:23;101719.41;;;25.93;40.16
62617;BME280;62539;51.190;6.808;2022-09-01T06:42:50;101716.75;;;25.93;39.79
62617;BME280;62539;51.190;6.808;2022-09-01T06:45:22;101723.88;;;25.92;40.05
62617;BME280;62539;51.190;6.808;2022-09-01T06:47:49;101725.66;;;25.92;39.97
62617;BME280;62539;51.190;6.808;2022-09-01T06:50:19;101720.34;;;25.92;40.16
62617;BME280;62539;51.190;6.808;2022-09-01T06:52:48;101723.09;;;25.90;39.83
62617;BME280;62539;51.190;6.808;2022-09-01T06:55:26;101727.53;;;25.90;39.72
62617;BME280;62539;51.190;6.808;2022-09-01T06:57:56;101724.88;;;25.90;39.48
62617;BME280;62539;51.190;6.808;2022-09-01T07:00:23;101722.31;;;25.88;39.79
62617;BME280;62539;51.190;6.808;2022-09-01T07:02:54;101726.75;;;25.88;39.21
62617;BME280;62539;51.190;6.808;2022-09-01T07:05:22;101725.03;;;25.87;39.20
62617;BME280;62539;51.190;6.808;2022-09-01T07:07:53;101731.28;;;25.86;38.91
62617;BME280;62539;51.190;6.808;2022-09-01T07:10:26;101729.88;;;25.78;39.07
62617;BME280;62539;51.190;6.808;2022-09-01T07:12:54;101726.13;;;25.82;39.42
62617;BME280;62539;51.190;6.808;2022-09-01T07:15:22;101730.59;;;25.82;39.14
62617;BME280;62539;51.190;6.808;2022-09-01T07:17:53;101735.03;;;25.81;39.37
62617;BME280;62539;51.190;6.808;2022-09-01T07:20:25;101728.00;;;25.80;38.97
62617;BME280;62539;51.190;6.808;2022-09-01T07:22:54;101728.00;;;25.80;39.03
62617;BME280;62539;51.190;6.808;2022-09-01T07:25:21;101729.72;;;25.81;38.71
62617;BME280;62539;51.190;6.808;2022-09-01T07:27:47;101735.03;;;25.81;39.05
62617;BME280;62539;51.190;6.808;2022-09-01T07:30:18;101735.03;;;25.81;39.13
62617;BME280;62539;51.190;6.808;2022-09-01T07:32:45;101730.66;;;25.80;39.02
62617;BME280;62539;51.190;6.808;2022-09-01T07:35:14;101724.41;;;25.81;39.07
62617;BME280;62539;51.190;6.808;2022-09-01T07:37:44;101726.22;;;25.81;39.00
62617;BME280;62539;51.190;6.808;2022-09-01T07:40:14;101718.25;;;25.81;39.12
62617;BME280;62539;51.190;6.808;2022-09-01T07:42:43;101720.03;;;25.80;38.61
62617;BME280;62539;51.190;6.808;2022-09-01T07:45:13;101722.69;;;25.80;38.90
62617;BME280;62539;51.190;6.808;2022-09-01T07:47:41;101726.28;;;25.79;38.80
62617;BME280;62539;51.190;6.808;2022-09-01T07:50:10;101720.03;;;25.80;38.61
62617;BME280;62539;51.190;6.808;2022-09-01T07:52:40;101721.84;;;25.80;38.70
62617;BME280;62539;51.190;6.808;2022-09-01T07:55:12;101720.97;;;25.79;38.49
62617;BME280;62539;51.190;6.808;2022-09-01T07:57:40;101722.69;;;25.80;38.53
62617;BME280;62539;51.190;6.808;2022-09-01T08:00:08;101728.00;;;25.80;38.99
62617;BME280;62539;51.190;6.808;2022-09-01T08:02:36;101720.97;;;25.79;38.73
62617;BME280;62539;51.190;6.808;2022-09-01T08:05:04;101720.97;;;25.79;38.70
62617;BME280;62539;51.190;6.808;2022-09-01T08:07:34;101723.94;;;25.73;39.00
62617;BME280;62539;51.190;6.808;2022-09-01T08:10:00;101729.09;;;25.76;38.49
62617;BME280;62539;51.190;6.808;2022-09-01T08:12:26;101733.47;;;25.77;38.44
62617;BME280;62539;51.190;6.808;2022-09-01T08:14:51;101726.44;;;25.76;38.50
62617;BME280;62539;51.190;6.808;2022-09-01T08:17:17;101728.16;;;25.77;38.42
62617;BME280;62539;51.190;6.808;2022-09-01T08:19:44;101717.53;;;25.77;38.41
62617;BME280;62539;51.190;6.808;2022-09-01T08:22:11;101722.78;;;25.79;38.00
62617;BME280;62539;51.190;6.808;2022-09-01T08:24:37;101724.56;;;25.78;37.64
62617;BME280;62539;51.190;6.808;2022-09-01T08:27:02;101726.28;;;25.79;37.64
62617;BME280;62539;51.190;6.808;2022-09-01T08:29:28;101724.50;;;25.80;37.60
62617;BME280;62539;51.190;6.808;2022-09-01T08:31:54;101725.34;;;25.80;37.13
62617;BME280;62539;51.190;6.808;2022-09-01T08:34:19;101728.00;;;25.80;36.72
62617;BME280;62539;51.190;6.808;2022-09-01T08:36:45;101728.88;;;25.81;36.69
62617;BME280;62539;51.190;6.808;2022-09-01T08:39:10;101724.41;;;25.81;36.41
62617;BME280;62539;51.190;6.808;2022-09-01T08:41:57;101725.34;;;25.80;35.96
62617;BME280;62539;51.190;6.808;2022-09-01T08:44:40;101722.53;;;25.83;36.16
62617;BME280;62539;51.190;6.808;2022-09-01T08:47:17;101727.78;;;25.85;36.00
62617;BME280;62539;51.190;6.808;2022-09-01T08:49:44;101726.84;;;25.86;35.78
62617;BME280;62539;51.190;6.808;2022-09-01T08:52:30;101724.09;;;25.88;35.03
62617;BME280;62539;51.190;6.808;2022-09-01T08:55:21;101716.22;;;25.86;34.88
62617;BME280;62539;51.190;6.808;2022-09-01T08:57:55;101708.00;;;25.91;34.91
62617;BME280;62539;51.190;6.808;2022-09-01T09:00:28;101717.78;;;25.90;34.69
62617;BME280;62539;51.190;6.808;2022-09-01T09:06:16;101710.66;;;25.91;34.48
62617;BME280;62539;51.190;6.808;2022-09-01T09:08:52;101711.28;;;25.96;33.96
62617;BME280;62539;51.190;6.808;2022-09-01T09:14:36;101707.69;;;25.97;33.54
62617;BME280;62539;51.190;6.808;2022-09-01T09:17:08;101700.34;;;26.02;34.00
62617;BME280;62539;51.190;6.808;2022-09-01T09:19:41;101705.50;;;26.05;34.30
62617;BME280;62539;51.190;6.808;2022-09-01T09:22:14;101690.31;;;26.07;34.40
62617;BME280;62539;51.190;6.808;2022-09-01T09:25:08;101690.31;;;26.07;34.61
62617;BME280;62539;51.190;6.808;2022-09-01T09:27:42;101690.09;;;26.12;35.04
62617;BME280;62539;51.190;6.808;2022-09-01T09:30:21;101693.47;;;26.16;35.29
62617;BME280;62539;51.190;6.808;2022-09-01T09:33:04;101685.50;;;26.16;35.48
62617;BME280;62539;51.190;6.808;2022-09-01T09:35:39;101686.88;;;26.23;35.28
62617;BME280;62539;51.190;6.808;2022-09-01T09:40:58;101682.00;;;26.31;35.33
62617;BME280;62539;51.190;6.808;2022-09-01T09:43:35;101677.31;;;26.36;35.70
62617;BME280;62539;51.190;6.808;2022-09-01T09:46:25;101684.19;;;26.40;35.45
62617;BME280;62539;51.190;6.808;2022-09-01T09:49:22;101680.41;;;26.45;35.84
62617;BME280;62539;51.190;6.808;2022-09-01T09:52:33;101665.84;;;26.52;36.04
62617;BME280;62539;51.190;6.808;2022-09-01T09:55:05;101662.22;;;26.53;36.11
62617;BME280;62539;51.190;6.808;2022-09-01T09:57:46;101670.56;;;26.63;35.90
62617;BME280;62539;51.190;6.808;2022-09-01T10:00:26;101667.72;;;26.66;35.97
62617;BME280;62539;51.190;6.808;2022-09-01T10:03:00;101667.38;;;26.72;36.04
62617;BME280;62539;51.190;6.808;2022-09-01T10:05:40;101660.00;;;26.77;36.00
62617;BME280;62539;51.190;6.808;2022-09-01T10:08:37;101665.09;;;26.82;36.10
62617;BME280;62539;51.190;6.808;2022-09-01T10:11:11;101657.63;;;26.89;35.45
62617;BME280;62539;51.190;6.808;2022-09-01T10:13:51;101654.63;;;26.95;35.04
62617;BME280;62539;51.190;6.808;2022-09-01T10:16:26;101646.47;;;26.98;34.01
62617;BME280;62539;51.190;6.808;2022-09-01T10:18:55;101648.88;;;27.03;33.84
62617;BME280;62539;51.190;6.808;2022-09-01T10:21:31;101645.09;;;27.07;32.96
62617;BME280;62539;51.190;6.808;2022-09-01T10:24:08;101646.63;;;27.11;32.61
62617;BME280;62539;51.190;6.808;2022-09-01T10:26:37;101647.28;;;27.14;32.21
62617;BME280;62539;51.190;6.808;2022-09-01T10:29:20;101644.47;;;27.18;32.09
62617;BME280;62539;51.190;6.808;2022-09-01T10:31:54;101639.72;;;27.23;31.87
62617;BME280;62539;51.190;6.808;2022-09-01T10:34:21;101645.75;;;27.26;31.58
62617;BME280;62539;51.190;6.808;2022-09-01T10:36:48;101642.72;;;27.33;31.81
62617;BME280;62539;51.190;6.808;2022-09-01T10:39:17;101642.53;;;27.36;31.54
62617;BME280;62539;51.190;6.808;2022-09-01T10:41:54;101638.16;;;27.35;31.59
62617;BME280;62539;51.190;6.808;2022-09-01T10:47:00;101635.38;;;27.36;31.38
62617;BME280;62539;51.190;6.808;2022-09-01T10:58:14;101618.56;;;27.36;30.94
62617;BME280;62539;51.190;6.808;2022-09-01T11:00:51;101623.78;;;27.37;31.03
62617;BME280;62539;51.190;6.808;2022-09-01T11:08:44;101609.69;;;27.51;30.96
62617;BME280;62539;51.190;6.808;2022-09-01T11:11:42;101619.75;;;27.46;30.96
62617;BME280;62539;51.190;6.808;2022-09-01T11:14:19;101617.06;;;27.46;30.75
62617;BME280;62539;51.190;6.808;2022-09-01T11:30:43;101607.75;;;27.23;31.20
62617;BME280;62539;51.190;6.808;2022-09-01T11:36:34;101602.41;;;27.39;31.40
62617;BME280;62539;51.190;6.808;2022-09-01T11:44:34;101602.88;;;27.62;31.36
62617;BME280;62539;51.190;6.808;2022-09-01T11:47:18;101598.94;;;27.67;31.41
62617;BME280;62539;51.190;6.808;2022-09-01T11:50:06;101592.47;;;27.71;31.26
62617;BME280;62539;51.190;6.808;2022-09-01T11:52:42;101603.66;;;27.78;31.53
62617;BME280;62539;51.190;6.808;2022-09-01T11:55:30;101597.16;;;27.82;31.49
62617;BME280;62539;51.190;6.808;2022-09-01T11:58:01;101590.88;;;27.83;31.94
62617;BME280;62539;51.190;6.808;2022-09-01T12:00:34;101591.06;;;27.80;32.34
62617;BME280;62539;51.190;6.808;2022-09-01T12:03:23;101589.25;;;27.81;32.69
62617;BME280;62539;51.190;6.808;2022-09-01T12:05:55;101586.22;;;27.87;32.53
62617;BME280;62539;51.190;6.808;2022-09-01T12:08:41;101587.72;;;27.91;32.55
62617;BME280;62539;51.190;6.808;2022-09-01T12:11:26;101594.97;;;27.89;32.76
62617;BME280;62539;51.190;6.808;2022-09-01T12:13:59;101590.88;;;27.83;33.19
62617;BME280;62539;51.190;6.808;2022-09-01T12:16:28;101574.22;;;27.80;33.48
62617;BME280;62539;51.190;6.808;2022-09-01T12:18:57;101575.47;;;27.74;33.54
62617;BME280;62539;51.190;6.808;2022-09-01T12:21:26;101572.09;;;27.70;33.66
62617;BME280;62539;51.190;6.808;2022-09-01T12:24:12;101570.97;;;27.75;34.00
62617;BME280;62539;51.190;6.808;2022-09-01T12:26:39;101565.25;;;27.81;33.85
62617;BME280;62539;51.190;6.808;2022-09-01T12:29:06;101564.03;;;27.86;34.03
62617;BME280;62539;51.190;6.808;2022-09-01T12:31:32;101560.13;;;27.92;33.48
62617;BME280;62539;51.190;6.808;2022-09-01T12:33:59;101558.13;;;27.96;33.99
62617;BME280;62539;51.190;6.808;2022-09-01T12:41:43;101551.16;;;28.08;33.69
62617;BME280;62539;51.190;6.808;2022-09-01T12:44:29;101557.25;;;28.10;34.16
62617;BME280;62539;51.190;6.808;2022-09-01T12:47:12;101556.22;;;28.12;33.91
62617;BME280;62539;51.190;6.808;2022-09-01T12:52:44;101542.53;;;28.19;33.86
62617;BME280;62539;51.190;6.808;2022-09-01T12:55:21;101542.88;;;28.12;32.84
62617;BME280;62539;51.190;6.808;2022-09-01T12:57:53;101536.78;;;28.10;34.11
62617;BME280;62539;51.190;6.808;2022-09-01T13:00:26;101528.22;;;28.20;34.43
62617;BME280;62539;51.190;6.808;2022-09-01T13:03:13;101539.06;;;28.31;34.51
62617;BME280;62539;51.190;6.808;2022-09-01T13:05:48;101538.56;;;28.39;34.81
62617;BME280;62539;51.190;6.808;2022-09-01T13:08:21;101542.84;;;28.41;34.94
62617;BME280;62539;51.190;6.808;2022-09-01T13:10:55;101536.44;;;28.44;35.39
62617;BME280;62539;51.190;6.808;2022-09-01T13:13:32;101536.44;;;28.44;35.43
62617;BME280;62539;51.190;6.808;2022-09-01T13:16:00;101531.56;;;28.51;35.83
62617;BME280;62539;51.190;6.808;2022-09-01T13:18:36;101526.25;;;28.51;35.12
62617;BME280;62539;51.190;6.808;2022-09-01T13:21:02;101525.47;;;28.49;34.70
62617;BME280;62539;51.190;6.808;2022-09-01T13:23:28;101522.25;;;28.43;34.76
62617;BME280;62539;51.190;6.808;2022-09-01T13:25:55;101520.75;;;28.39;33.96
62617;BME280;62539;51.190;6.808;2022-09-01T13:28:23;101515.69;;;28.35;33.56
62617;BME280;62539;51.190;6.808;2022-09-01T13:30:56;101507.34;;;28.26;33.33
62617;BME280;62539;51.190;6.808;2022-09-01T13:33:25;101510.50;;;28.19;33.00
62617;BME280;62539;51.190;6.808;2022-09-01T13:35:52;101503.06;;;28.09;32.30
62617;BME280;62539;51.190;6.808;2022-09-01T13:38:19;101508.03;;;28.01;32.28
62617;BME280;62539;51.190;6.808;2022-09-01T13:40:47;101509.38;;;27.94;32.48
62617;BME280;62539;51.190;6.808;2022-09-01T13:43:14;101499.09;;;27.87;32.71
62617;BME280;62539;51.190;6.808;2022-09-01T13:45:41;101501.97;;;27.84;32.79
62617;BME280;62539;51.190;6.808;2022-09-01T13:48:07;101499.38;;;27.83;32.86
62617;BME280;62539;51.190;6.808;2022-09-01T13:50:34;101497.66;;;27.82;32.40
62617;BME280;62539;51.190;6.808;2022-09-01T13:53:00;101490.63;;;27.81;32.71
62617;BME280;62539;51.190;6.808;2022-09-01T13:55:28;101487.69;;;27.85;32.55
62617;BME280;62539;51.190;6.808;2022-09-01T13:57:55;101492.63;;;27.92;31.87
62617;BME280;62539;51.190;6.808;2022-09-01T14:00:26;101484.97;;;28.00;32.09
62617;BME280;62539;51.190;6.808;2022-09-01T14:02:56;101481.81;;;28.08;32.32
62617;BME280;62539;51.190;6.808;2022-09-01T14:05:26;101478.69;;;28.15;32.86
62617;BME280;62539;51.190;6.808;2022-09-01T14:07:54;101487.06;;;28.24;33.02
62617;BME280;62539;51.190;6.808;2022-09-01T14:10:21;101483.03;;;28.31;32.92